createdAt,value
2018-04-27T00:00:23.569Z,8.38
2018-04-27T00:01:29.493Z,8.31
2018-04-27T00:02:36.483Z,8.35
2018-04-27T00:03:42.756Z,8.44
2018-04-27T00:04:48.740Z,8.44
2018-04-27T00:05:58.575Z,8.41
2018-04-27T00:07:04.772Z,8.41
2018-04-27T00:08:10.970Z,8.36
2018-04-27T00:09:17.383Z,8.39
2018-04-27T00:10:24.454Z,8.45
2018-04-27T00:11:33.306Z,8.47
2018-04-27T00:12:39.597Z,8.38
2018-04-27T00:13:45.676Z,8.30
2018-04-27T00:14:52.508Z,8.30
2018-04-27T00:15:58.720Z,8.37
2018-04-27T00:17:05.001Z,8.35
2018-04-27T00:18:11.290Z,8.26
2018-04-27T00:19:17.287Z,8.23
2018-04-27T00:20:23.730Z,8.19
2018-04-27T00:21:29.994Z,8.13
2018-04-27T00:22:36.193Z,8.11
2018-04-27T00:23:53.022Z,8.10
2018-04-27T00:24:59.282Z,8.32
2018-04-27T00:26:05.154Z,8.36
2018-04-27T00:27:11.367Z,8.26
2018-04-27T00:28:17.630Z,8.18
2018-04-27T00:29:23.903Z,8.12
2018-04-27T00:30:30.152Z,8.09
2018-04-27T00:31:36.418Z,8.05
2018-04-27T00:32:42.606Z,7.80
2018-04-27T00:33:48.864Z,7.48
2018-04-27T00:34:54.911Z,7.42
2018-04-27T00:36:01.249Z,7.54
2018-04-27T00:37:08.248Z,7.76
2018-04-27T00:38:14.291Z,7.83
2018-04-27T00:39:21.900Z,7.81
2018-04-27T00:40:28.262Z,7.82
2018-04-27T00:41:36.415Z,7.84
2018-04-27T00:42:43.908Z,7.94
2018-04-27T00:43:50.092Z,8.03
2018-04-27T00:44:56.364Z,7.96
2018-04-27T00:46:02.556Z,7.98
2018-04-27T00:47:08.795Z,8.04
2018-04-27T00:48:16.642Z,8.03
2018-04-27T00:49:24.888Z,7.94
2018-04-27T00:50:31.102Z,7.83
2018-04-27T00:51:37.383Z,7.76
2018-04-27T00:52:54.702Z,7.70
2018-04-27T00:54:01.415Z,7.70
2018-04-27T00:55:08.322Z,7.70
2018-04-27T00:56:14.638Z,7.73
2018-04-27T00:57:20.944Z,7.75
2018-04-27T00:58:27.162Z,7.81
2018-04-27T00:59:33.461Z,7.84
2018-04-27T01:00:39.328Z,7.83
2018-04-27T01:01:44.514Z,7.85
2018-04-27T01:02:50.567Z,7.90
2018-04-27T01:03:56.977Z,7.87
2018-04-27T01:05:03.252Z,7.80
2018-04-27T01:06:09.472Z,7.88
2018-04-27T01:07:15.699Z,7.86
2018-04-27T01:08:21.910Z,7.83
2018-04-27T01:09:28.147Z,7.76
2018-04-27T01:10:34.457Z,7.78
2018-04-27T01:11:40.437Z,7.74
2018-04-27T01:12:49.326Z,7.67
2018-04-27T01:13:56.651Z,7.59
2018-04-27T01:15:02.825Z,7.68
2018-04-27T01:16:09.624Z,7.83
2018-04-27T01:17:15.895Z,7.93
2018-04-27T01:18:22.107Z,8.00
2018-04-27T01:19:28.341Z,7.97
2018-04-27T01:20:33.903Z,7.91
2018-04-27T01:21:39.861Z,7.74
2018-04-27T01:22:46.144Z,7.68
2018-04-27T01:23:52.404Z,7.68
2018-04-27T01:24:58.284Z,7.69
2018-04-27T01:26:04.650Z,7.62
2018-04-27T01:27:10.904Z,7.59
2018-04-27T01:28:17.205Z,7.57
2018-04-27T01:29:24.458Z,7.57
2018-04-27T01:30:30.718Z,7.62
2018-04-27T01:31:36.539Z,7.62
2018-04-27T01:32:42.904Z,7.60
2018-04-27T01:33:49.203Z,7.53
2018-04-27T01:34:56.004Z,7.49
2018-04-27T01:36:02.065Z,7.64
2018-04-27T01:37:08.283Z,7.74
2018-04-27T01:38:19.680Z,7.73
2018-04-27T01:39:25.956Z,7.60
2018-04-27T01:40:32.279Z,7.46
2018-04-27T01:41:39.010Z,7.56
2018-04-27T01:42:52.895Z,7.60
2018-04-27T01:44:00.858Z,7.57
2018-04-27T01:45:08.011Z,7.63
2018-04-27T01:46:15.944Z,7.54
2018-04-27T01:47:22.173Z,7.55
2018-04-27T01:48:29.423Z,7.50
2018-04-27T01:49:35.773Z,7.23
2018-04-27T01:50:42.161Z,7.17
2018-04-27T01:51:48.422Z,7.19
2018-04-27T01:52:56.039Z,7.13
2018-04-27T01:54:01.933Z,7.15
2018-04-27T01:55:09.047Z,7.03
2018-04-27T01:56:15.330Z,6.90
2018-04-27T01:57:21.523Z,6.62
2018-04-27T01:58:27.775Z,6.86
2018-04-27T01:59:36.904Z,6.99
2018-04-27T02:00:43.283Z,7.02
2018-04-27T02:01:49.222Z,7.02
2018-04-27T02:02:55.457Z,7.01
2018-04-27T02:04:01.766Z,7.04
2018-04-27T02:05:08.082Z,6.96
2018-04-27T02:06:14.390Z,7.00
2018-04-27T02:07:20.701Z,7.04
2018-04-27T02:08:27.006Z,7.10
2018-04-27T02:09:33.220Z,7.11
2018-04-27T02:10:39.204Z,7.13
2018-04-27T02:11:45.504Z,7.01
2018-04-27T02:12:52.017Z,7.01
2018-04-27T02:13:59.143Z,6.99
2018-04-27T02:15:07.423Z,6.87
2018-04-27T02:16:14.719Z,6.97
2018-04-27T02:17:20.963Z,6.97
2018-04-27T02:18:27.218Z,7.06
2018-04-27T02:19:33.533Z,7.15
2018-04-27T02:20:39.803Z,7.12
2018-04-27T02:21:46.023Z,7.16
2018-04-27T02:22:52.104Z,7.03
2018-04-27T02:23:58.423Z,7.06
2018-04-27T02:25:04.681Z,7.11
2018-04-27T02:26:10.970Z,7.22
2018-04-27T02:27:17.742Z,7.24
2018-04-27T02:28:24.003Z,7.36
2018-04-27T02:29:30.299Z,7.27
2018-04-27T02:30:36.553Z,7.34
2018-04-27T02:31:42.886Z,7.30
2018-04-27T02:32:49.990Z,7.29
2018-04-27T02:33:57.019Z,7.20
2018-04-27T02:35:03.211Z,7.17
2018-04-27T02:36:09.567Z,7.09
2018-04-27T02:37:15.506Z,7.13
2018-04-27T02:38:21.717Z,7.15
2018-04-27T02:39:28.041Z,7.10
2018-04-27T02:40:34.373Z,7.12
2018-04-27T02:41:40.584Z,7.02
2018-04-27T02:42:46.879Z,7.04
2018-04-27T02:43:53.159Z,7.07
2018-04-27T02:44:59.419Z,7.03
2018-04-27T02:46:06.169Z,6.95
2018-04-27T02:47:17.627Z,6.92
2018-04-27T02:48:23.863Z,6.90
2018-04-27T02:49:30.171Z,6.91
2018-04-27T02:50:36.610Z,6.94
2018-04-27T02:51:43.336Z,6.91
2018-04-27T02:52:49.603Z,6.90
2018-04-27T02:53:57.499Z,6.93
2018-04-27T02:55:03.814Z,6.91
2018-04-27T02:56:10.107Z,6.91
2018-04-27T02:57:17.235Z,6.89
2018-04-27T02:58:23.579Z,6.87
2018-04-27T02:59:29.820Z,6.87
2018-04-27T03:00:36.159Z,6.83
2018-04-27T03:01:42.493Z,6.80
2018-04-27T03:02:49.511Z,6.77
2018-04-27T03:03:55.787Z,6.88
2018-04-27T03:05:02.683Z,6.85
2018-04-27T03:06:09.975Z,6.79
2018-04-27T03:07:16.279Z,6.83
2018-04-27T03:08:22.585Z,6.79
2018-04-27T03:09:28.893Z,6.83
2018-04-27T03:10:35.141Z,6.86
2018-04-27T03:11:41.328Z,6.84
2018-04-27T03:12:47.604Z,6.89
2018-04-27T03:13:53.912Z,6.74
2018-04-27T03:15:00.131Z,6.68
2018-04-27T03:16:06.174Z,6.82
2018-04-27T03:17:12.467Z,6.78
2018-04-27T03:18:18.758Z,6.71
2018-04-27T03:19:25.014Z,6.73
2018-04-27T03:20:31.316Z,6.79
2018-04-27T03:21:38.870Z,6.68
2018-04-27T03:22:45.947Z,6.62
2018-04-27T03:23:52.159Z,6.42
2018-04-27T03:24:59.199Z,6.50
2018-04-27T03:26:05.051Z,6.48
2018-04-27T03:27:11.304Z,6.50
2018-04-27T03:28:17.554Z,6.57
2018-04-27T03:29:23.843Z,6.57
2018-04-27T03:30:29.809Z,6.62
2018-04-27T03:31:36.167Z,6.53
2018-04-27T03:32:42.474Z,6.40
2018-04-27T03:33:48.789Z,6.46
2018-04-27T03:34:55.111Z,6.50
2018-04-27T03:36:01.391Z,6.56
2018-04-27T03:37:07.593Z,6.56
2018-04-27T03:38:14.580Z,6.42
2018-04-27T03:39:21.688Z,6.39
2018-04-27T03:40:27.969Z,6.39
2018-04-27T03:41:34.296Z,6.36
2018-04-27T03:42:40.623Z,6.37
2018-04-27T03:43:46.895Z,6.40
2018-04-27T03:45:01.669Z,6.45
2018-04-27T03:46:07.963Z,6.42
2018-04-27T03:47:14.221Z,6.38
2018-04-27T03:48:20.445Z,6.36
2018-04-27T03:49:27.331Z,6.30
2018-04-27T03:50:34.512Z,6.30
2018-04-27T03:51:41.123Z,6.29
2018-04-27T03:52:48.111Z,6.30
2018-04-27T03:53:56.358Z,6.32
2018-04-27T03:55:02.579Z,6.32
2018-04-27T03:56:08.855Z,6.35
2018-04-27T03:57:15.195Z,6.36
2018-04-27T03:58:21.484Z,6.38
2018-04-27T03:59:39.697Z,6.35
2018-04-27T04:00:56.690Z,6.31
2018-04-27T04:02:13.752Z,6.29
2018-04-27T04:03:30.908Z,6.32
2018-04-27T04:04:47.971Z,6.41
2018-04-27T04:05:54.055Z,6.46
2018-04-27T04:07:00.288Z,6.57
2018-04-27T04:08:06.471Z,6.62
2018-04-27T04:09:12.802Z,6.54
2018-04-27T04:10:19.200Z,6.59
2018-04-27T04:11:25.446Z,6.67
2018-04-27T04:12:31.793Z,6.70
2018-04-27T04:13:38.056Z,6.72
2018-04-27T04:14:45.241Z,6.70
2018-04-27T04:15:53.295Z,6.72
2018-04-27T04:17:00.607Z,6.73
2018-04-27T04:18:07.710Z,6.79
2018-04-27T04:19:14.046Z,6.88
2018-04-27T04:20:20.848Z,6.95
2018-04-27T04:21:27.886Z,6.95
2018-04-27T04:22:35.581Z,6.89
2018-04-27T04:23:41.782Z,6.83
2018-04-27T04:24:48.019Z,6.86
2018-04-27T04:25:54.379Z,6.89
2018-04-27T04:27:00.666Z,6.88
2018-04-27T04:28:08.534Z,6.86
2018-04-27T04:29:14.799Z,6.85
2018-04-27T04:30:21.006Z,6.84
2018-04-27T04:31:27.227Z,6.86
2018-04-27T04:32:33.544Z,6.85
2018-04-27T04:33:39.868Z,6.78
2018-04-27T04:34:46.158Z,6.79
2018-04-27T04:35:52.462Z,6.76
2018-04-27T04:36:58.819Z,6.73
2018-04-27T04:38:05.104Z,6.82
2018-04-27T04:39:11.268Z,6.87
2018-04-27T04:40:17.495Z,6.86
2018-04-27T04:41:23.696Z,6.85
2018-04-27T04:42:29.987Z,6.88
2018-04-27T04:43:36.236Z,6.88
2018-04-27T04:44:42.463Z,6.91
2018-04-27T04:45:51.547Z,6.89
2018-04-27T04:46:58.103Z,6.89
2018-04-27T04:48:05.072Z,6.95
2018-04-27T04:49:11.517Z,7.02
2018-04-27T04:50:19.623Z,6.94
2018-04-27T04:51:25.931Z,7.08
2018-04-27T04:52:32.314Z,7.11
2018-04-27T04:53:38.663Z,7.09
2018-04-27T04:54:44.636Z,7.02
2018-04-27T04:55:50.872Z,6.90
2018-04-27T04:56:57.141Z,6.92
2018-04-27T04:58:03.168Z,6.99
2018-04-27T04:59:09.427Z,7.06
2018-04-27T05:00:15.646Z,7.03
2018-04-27T05:01:24.466Z,7.05
2018-04-27T05:02:32.204Z,7.08
2018-04-27T05:03:38.233Z,7.11
2018-04-27T05:04:44.462Z,7.22
2018-04-27T05:05:50.508Z,7.19
2018-04-27T05:06:57.335Z,7.20
2018-04-27T05:08:03.606Z,7.15
2018-04-27T05:09:09.896Z,7.18
2018-04-27T05:10:16.290Z,7.22
2018-04-27T05:11:24.550Z,7.20
2018-04-27T05:12:30.783Z,7.22
2018-04-27T05:13:37.013Z,7.23
2018-04-27T05:14:43.309Z,7.22
2018-04-27T05:15:49.678Z,7.26
2018-04-27T05:16:56.971Z,7.27
2018-04-27T05:18:04.249Z,7.32
2018-04-27T05:19:09.583Z,7.33
2018-04-27T05:20:14.679Z,7.39
2018-04-27T05:21:21.001Z,7.44
2018-04-27T05:22:27.287Z,7.40
2018-04-27T05:23:33.297Z,7.44
2018-04-27T05:24:39.281Z,7.50
2018-04-27T05:25:45.127Z,7.51
2018-04-27T05:26:52.071Z,7.54
2018-04-27T05:27:59.472Z,7.62
2018-04-27T05:29:05.112Z,7.69
2018-04-27T05:30:11.341Z,7.69
2018-04-27T05:31:24.888Z,7.72
2018-04-27T05:32:31.977Z,7.79
2018-04-27T05:33:40.004Z,7.86
2018-04-27T05:34:46.646Z,7.96
2018-04-27T05:35:52.830Z,8.05
2018-04-27T05:36:58.071Z,8.07
2018-04-27T05:38:04.380Z,8.09
2018-04-27T05:39:09.998Z,8.18
2018-04-27T05:40:15.926Z,8.32
2018-04-27T05:41:21.550Z,8.53
2018-04-27T05:42:27.080Z,8.64
2018-04-27T05:43:32.323Z,8.73
2018-04-27T05:44:38.542Z,8.74
2018-04-27T05:45:44.697Z,8.80
2018-04-27T05:46:50.313Z,8.71
2018-04-27T05:47:56.049Z,8.57
2018-04-27T05:49:01.653Z,8.59
2018-04-27T05:50:07.488Z,8.55
2018-04-27T05:51:13.904Z,8.55
2018-04-27T05:52:19.907Z,8.49
2018-04-27T05:53:27.164Z,8.54
2018-04-27T05:54:32.979Z,8.58
2018-04-27T05:55:38.683Z,8.58
2018-04-27T05:56:44.667Z,8.66
2018-04-27T05:57:50.927Z,8.84
2018-04-27T05:58:57.734Z,8.91
2018-04-27T06:00:03.665Z,9.04
2018-04-27T06:01:09.608Z,9.11
2018-04-27T06:02:15.817Z,9.13
2018-04-27T06:03:22.060Z,9.11
2018-04-27T06:04:27.733Z,9.06
2018-04-27T06:05:33.599Z,9.11
2018-04-27T06:06:39.484Z,9.24
2018-04-27T06:07:45.795Z,9.39
2018-04-27T06:08:58.455Z,9.35
2018-04-27T06:10:05.635Z,9.42
2018-04-27T06:11:12.159Z,9.43
2018-04-27T06:12:18.360Z,9.50
2018-04-27T06:13:30.763Z,9.58
2018-04-27T06:14:38.151Z,9.71
2018-04-27T06:15:44.652Z,9.73
2018-04-27T06:16:50.879Z,9.72
2018-04-27T06:17:56.763Z,9.83
2018-04-27T06:19:02.405Z,9.64
2018-04-27T06:20:08.697Z,9.61
2018-04-27T06:21:14.918Z,9.82
2018-04-27T06:22:21.091Z,9.97
2018-04-27T06:23:27.006Z,9.95
2018-04-27T06:24:36.229Z,10.05
2018-04-27T06:25:43.273Z,9.97
2018-04-27T06:26:49.439Z,10.07
2018-04-27T06:27:55.882Z,10.03
2018-04-27T06:29:02.208Z,9.85
2018-04-27T06:30:07.815Z,9.91
2018-04-27T06:31:13.784Z,10.02
2018-04-27T06:32:19.519Z,10.30
2018-04-27T06:33:25.785Z,10.42
2018-04-27T06:34:32.141Z,10.42
2018-04-27T06:35:38.018Z,10.40
2018-04-27T06:36:44.270Z,10.49
2018-04-27T06:37:50.497Z,10.56
2018-04-27T06:38:56.743Z,10.69
2018-04-27T06:40:05.222Z,10.71
2018-04-27T06:41:12.421Z,10.62
2018-04-27T06:42:18.637Z,10.49
2018-04-27T06:43:24.659Z,10.53
2018-04-27T06:44:30.255Z,10.73
2018-04-27T06:45:36.799Z,10.83
2018-04-27T06:46:42.334Z,10.99
2018-04-27T06:47:47.864Z,11.02
2018-04-27T06:48:53.786Z,11.09
2018-04-27T06:49:59.338Z,11.24
2018-04-27T06:51:05.590Z,11.24
2018-04-27T06:52:11.855Z,11.25
2018-04-27T06:53:18.190Z,11.33
2018-04-27T06:54:24.523Z,11.30
2018-04-27T06:55:33.146Z,11.22
2018-04-27T06:56:40.207Z,10.97
2018-04-27T06:57:46.158Z,10.92
2018-04-27T06:58:51.688Z,10.88
2018-04-27T07:00:01.353Z,10.78
2018-04-27T07:01:06.772Z,10.80
2018-04-27T07:02:12.555Z,10.94
2018-04-27T07:03:18.166Z,11.05
2018-04-27T07:04:23.941Z,11.11
2018-04-27T07:05:29.331Z,11.16
2018-04-27T07:06:34.942Z,11.26
2018-04-27T07:07:41.395Z,11.37
2018-04-27T07:08:47.892Z,11.43
2018-04-27T07:09:53.134Z,11.40
2018-04-27T07:11:00.035Z,11.43
2018-04-27T07:12:05.258Z,11.51
2018-04-27T07:13:11.332Z,11.42
2018-04-27T07:14:16.882Z,11.21
2018-04-27T07:15:22.357Z,11.26
2018-04-27T07:16:28.555Z,11.34
2018-04-27T07:17:34.866Z,11.42
2018-04-27T07:18:44.747Z,11.46
2018-04-27T07:19:50.722Z,11.49
2018-04-27T07:20:56.962Z,11.63
2018-04-27T07:22:02.804Z,11.63
2018-04-27T07:23:09.079Z,11.56
2018-04-27T07:24:15.419Z,11.57
2018-04-27T07:25:21.328Z,11.71
2018-04-27T07:26:27.578Z,11.70
2018-04-27T07:27:33.836Z,11.77
2018-04-27T07:28:39.818Z,11.77
2018-04-27T07:29:46.663Z,11.84
2018-04-27T07:30:52.617Z,11.81
2018-04-27T07:32:00.355Z,11.83
2018-04-27T07:33:07.540Z,11.92
2018-04-27T07:34:13.592Z,12.07
2018-04-27T07:35:19.703Z,12.04
2018-04-27T07:36:25.858Z,12.16
2018-04-27T07:37:39.631Z,12.09
2018-04-27T07:38:46.111Z,12.30
2018-04-27T07:39:52.338Z,12.32
2018-04-27T07:40:57.874Z,12.30
2018-04-27T07:42:03.124Z,12.28
2018-04-27T07:43:09.152Z,12.12
2018-04-27T07:44:14.751Z,12.05
2018-04-27T07:45:20.631Z,12.04
2018-04-27T07:46:27.255Z,12.16
2018-04-27T07:47:36.129Z,12.24
2018-04-27T07:48:41.908Z,12.35
2018-04-27T07:49:47.801Z,12.46
2018-04-27T07:50:53.042Z,12.55
2018-04-27T07:51:58.527Z,12.62
2018-04-27T07:53:03.981Z,12.59
2018-04-27T07:54:09.493Z,12.73
2018-04-27T07:55:14.916Z,12.78
2018-04-27T07:56:20.679Z,12.77
2018-04-27T07:57:28.220Z,12.68
2018-04-27T07:58:39.962Z,12.77
2018-04-27T07:59:46.497Z,12.93
2018-04-27T08:00:51.978Z,12.89
2018-04-27T08:01:58.347Z,12.81
2018-04-27T08:03:04.945Z,13.08
2018-04-27T08:04:13.319Z,13.21
2018-04-27T08:05:18.361Z,13.26
2018-04-27T08:06:24.270Z,13.21
2018-04-27T08:07:29.753Z,13.43
2018-04-27T08:08:35.233Z,13.46
2018-04-27T08:09:40.895Z,13.27
2018-04-27T08:10:46.115Z,13.41
2018-04-27T08:11:56.539Z,13.51
2018-04-27T08:13:02.899Z,13.72
2018-04-27T08:14:08.461Z,13.67
2018-04-27T08:15:14.808Z,13.79
2018-04-27T08:16:20.149Z,13.86
2018-04-27T08:17:25.428Z,13.70
2018-04-27T08:18:30.718Z,13.50
2018-04-27T08:19:36.400Z,13.63
2018-04-27T08:20:43.342Z,13.83
2018-04-27T08:21:48.988Z,13.83
2018-04-27T08:22:54.211Z,13.76
2018-04-27T08:23:59.955Z,13.61
2018-04-27T08:25:05.355Z,13.71
2018-04-27T08:26:11.496Z,13.64
2018-04-27T08:27:16.766Z,13.58
2018-04-27T08:28:21.993Z,13.81
2018-04-27T08:29:27.534Z,13.98
2018-04-27T08:30:33.257Z,14.02
2018-04-27T08:31:38.793Z,14.00
2018-04-27T08:32:43.991Z,14.16
2018-04-27T08:33:49.578Z,14.36
2018-04-27T08:34:54.875Z,14.31
2018-04-27T08:36:00.794Z,14.54
2018-04-27T08:37:06.993Z,14.47
2018-04-27T08:38:13.187Z,14.44
2018-04-27T08:39:19.406Z,14.31
2018-04-27T08:40:25.651Z,14.36
2018-04-27T08:41:33.660Z,14.58
2018-04-27T08:42:39.893Z,14.45
2018-04-27T08:43:45.836Z,14.26
2018-04-27T08:44:52.666Z,14.59
2018-04-27T08:45:58.851Z,14.63
2018-04-27T08:47:05.013Z,14.64
2018-04-27T08:48:11.520Z,14.88
2018-04-27T08:49:17.419Z,14.94
2018-04-27T08:50:23.736Z,14.91
2018-04-27T08:51:29.354Z,14.96
2018-04-27T08:52:34.867Z,15.03
2018-04-27T08:53:40.407Z,14.94
2018-04-27T08:54:45.950Z,14.99
2018-04-27T08:55:51.520Z,14.79
2018-04-27T08:56:57.139Z,14.71
2018-04-27T08:58:02.527Z,14.80
2018-04-27T08:59:08.103Z,14.83
2018-04-27T09:00:13.365Z,14.98
2018-04-27T09:01:18.611Z,14.96
2018-04-27T09:02:24.798Z,14.97
2018-04-27T09:03:31.150Z,14.99
2018-04-27T09:04:37.195Z,14.89
2018-04-27T09:05:43.166Z,15.18
2018-04-27T09:06:49.607Z,15.18
2018-04-27T09:07:55.655Z,15.20
2018-04-27T09:09:01.299Z,14.86
2018-04-27T09:10:07.485Z,14.52
2018-04-27T09:11:13.347Z,14.45
2018-04-27T09:12:19.542Z,14.80
2018-04-27T09:13:25.706Z,14.69
2018-04-27T09:14:32.884Z,15.00
2018-04-27T09:15:39.094Z,15.16
2018-04-27T09:16:44.962Z,15.22
2018-04-27T09:17:51.200Z,15.24
2018-04-27T09:18:57.246Z,15.33
2018-04-27T09:20:03.431Z,15.26
2018-04-27T09:21:09.414Z,15.57
2018-04-27T09:22:15.633Z,15.64
2018-04-27T09:23:21.800Z,15.32
2018-04-27T09:24:27.622Z,15.29
2018-04-27T09:25:33.561Z,15.35
2018-04-27T09:26:39.382Z,15.55
2018-04-27T09:27:45.577Z,15.80
2018-04-27T09:28:51.801Z,15.99
2018-04-27T09:29:58.682Z,16.09
2018-04-27T09:31:04.497Z,15.90
2018-04-27T09:32:10.294Z,15.69
2018-04-27T09:33:16.093Z,15.79
2018-04-27T09:34:21.908Z,15.51
2018-04-27T09:35:28.126Z,15.58
2018-04-27T09:36:34.357Z,15.90
2018-04-27T09:37:40.556Z,15.98
2018-04-27T09:38:47.938Z,16.26
2018-04-27T09:39:53.756Z,16.39
2018-04-27T09:40:59.508Z,16.25
2018-04-27T09:42:05.494Z,16.03
2018-04-27T09:43:11.964Z,16.12
2018-04-27T09:44:18.542Z,15.77
2018-04-27T09:45:23.844Z,15.78
2018-04-27T09:46:29.427Z,15.89
2018-04-27T09:47:35.265Z,15.89
2018-04-27T09:48:41.124Z,15.92
2018-04-27T09:49:46.874Z,15.72
2018-04-27T09:50:52.371Z,15.95
2018-04-27T09:51:58.037Z,15.84
2018-04-27T09:53:04.094Z,15.81
2018-04-27T09:54:10.284Z,15.81
2018-04-27T09:55:16.501Z,15.85
2018-04-27T09:56:22.137Z,15.69
2018-04-27T09:57:28.355Z,15.27
2018-04-27T09:58:34.785Z,15.43
2018-04-27T09:59:40.087Z,15.74
2018-04-27T10:00:45.959Z,16.00
2018-04-27T10:01:51.657Z,15.99
2018-04-27T10:02:57.236Z,15.99
2018-04-27T10:04:03.050Z,15.67
2018-04-27T10:05:09.897Z,15.65
2018-04-27T10:06:15.535Z,15.93
2018-04-27T10:07:21.093Z,16.34
2018-04-27T10:08:26.898Z,16.57
2018-04-27T10:09:32.758Z,16.64
2018-04-27T10:10:38.633Z,16.73
2018-04-27T10:11:44.539Z,16.67
2018-04-27T10:12:50.770Z,16.53
2018-04-27T10:13:56.990Z,16.30
2018-04-27T10:15:02.880Z,16.42
2018-04-27T10:16:08.924Z,16.55
2018-04-27T10:17:15.184Z,16.61
2018-04-27T10:18:21.641Z,16.57
2018-04-27T10:19:27.138Z,16.51
2018-04-27T10:20:33.086Z,16.46
2018-04-27T10:21:39.454Z,16.22
2018-04-27T10:22:45.682Z,16.07
2018-04-27T10:23:51.535Z,16.10
2018-04-27T10:24:57.741Z,16.16
2018-04-27T10:26:03.594Z,16.16
2018-04-27T10:27:09.834Z,16.32
2018-04-27T10:28:15.867Z,16.50
2018-04-27T10:29:21.784Z,16.57
2018-04-27T10:30:27.691Z,16.76
2018-04-27T10:31:33.910Z,16.56
2018-04-27T10:32:40.110Z,16.54
2018-04-27T10:33:46.328Z,16.55
2018-04-27T10:34:52.579Z,16.60
2018-04-27T10:35:58.795Z,16.82
2018-04-27T10:37:05.038Z,16.92
2018-04-27T10:38:10.925Z,16.59
2018-04-27T10:39:16.410Z,16.53
2018-04-27T10:40:22.312Z,16.16
2018-04-27T10:41:28.503Z,16.08
2018-04-27T10:42:34.054Z,16.44
2018-04-27T10:43:39.554Z,16.58
2018-04-27T10:44:45.454Z,16.66
2018-04-27T10:45:50.943Z,16.70
2018-04-27T10:46:56.445Z,16.31
2018-04-27T10:48:01.966Z,16.33
2018-04-27T10:49:07.529Z,16.33
2018-04-27T10:50:12.883Z,16.58
2018-04-27T10:51:18.516Z,16.64
2018-04-27T10:52:24.043Z,16.69
2018-04-27T10:53:29.551Z,16.49
2018-04-27T10:54:35.183Z,16.47
2018-04-27T10:55:40.486Z,16.51
2018-04-27T10:56:46.442Z,16.50
2018-04-27T10:57:51.993Z,16.43
2018-04-27T10:58:58.207Z,16.38
2018-04-27T11:00:03.721Z,16.33
2018-04-27T11:01:08.712Z,16.30
2018-04-27T11:02:14.367Z,16.73
2018-04-27T11:03:20.042Z,16.79
2018-04-27T11:04:25.718Z,16.97
2018-04-27T11:05:30.902Z,16.87
2018-04-27T11:06:36.209Z,16.94
2018-04-27T11:07:41.724Z,16.96
2018-04-27T11:08:46.952Z,17.02
2018-04-27T11:09:52.509Z,16.90
2018-04-27T11:10:58.408Z,16.83
2018-04-27T11:12:04.060Z,16.89
2018-04-27T11:13:09.093Z,16.74
2018-04-27T11:14:14.572Z,16.92
2018-04-27T11:15:20.051Z,16.98
2018-04-27T11:16:25.566Z,16.78
2018-04-27T11:17:31.079Z,16.91
2018-04-27T11:18:36.616Z,16.57
2018-04-27T11:19:42.103Z,16.52
2018-04-27T11:20:47.731Z,16.82
2018-04-27T11:21:52.962Z,16.86
2018-04-27T11:22:58.593Z,17.02
2018-04-27T11:24:04.442Z,17.07
2018-04-27T11:25:09.743Z,17.25
2018-04-27T11:26:14.947Z,17.29
2018-04-27T11:27:20.475Z,17.32
2018-04-27T11:28:26.715Z,17.06
2018-04-27T11:29:34.098Z,17.34
2018-04-27T11:30:40.358Z,17.01
2018-04-27T11:31:46.657Z,17.02
2018-04-27T11:32:52.551Z,17.11
2018-04-27T11:33:58.759Z,17.05
2018-04-27T11:35:04.277Z,16.74
2018-04-27T11:36:09.852Z,16.97
2018-04-27T11:37:15.420Z,17.37
2018-04-27T11:38:20.977Z,17.61
2018-04-27T11:39:27.134Z,17.80
2018-04-27T11:40:33.418Z,17.63
2018-04-27T11:41:39.242Z,17.52
2018-04-27T11:42:45.476Z,17.58
2018-04-27T11:43:51.324Z,17.66
2018-04-27T11:44:57.223Z,17.47
2018-04-27T11:46:02.992Z,17.80
2018-04-27T11:47:08.892Z,17.68
2018-04-27T11:48:14.433Z,17.78
2018-04-27T11:49:19.931Z,17.57
2018-04-27T11:50:26.974Z,17.49
2018-04-27T11:51:32.275Z,17.65
2018-04-27T11:52:37.568Z,17.17
2018-04-27T11:53:43.358Z,17.39
2018-04-27T11:54:48.923Z,17.68
2018-04-27T11:55:54.571Z,17.52
2018-04-27T11:57:00.034Z,17.23
2018-04-27T11:58:05.528Z,17.19
2018-04-27T11:59:10.889Z,16.67
2018-04-27T12:00:18.115Z,17.17
2018-04-27T12:01:23.400Z,17.35
2018-04-27T12:02:28.929Z,17.04
2018-04-27T12:03:34.294Z,16.89
2018-04-27T12:04:40.555Z,17.07
2018-04-27T12:05:45.817Z,17.42
2018-04-27T12:06:51.357Z,17.51
2018-04-27T12:07:56.893Z,17.53
2018-04-27T12:09:02.457Z,17.65
2018-04-27T12:10:08.850Z,17.69
2018-04-27T12:11:18.895Z,17.63
2018-04-27T12:12:28.749Z,17.77
2018-04-27T12:13:34.341Z,17.34
2018-04-27T12:14:39.892Z,17.41
2018-04-27T12:15:45.415Z,17.35
2018-04-27T12:16:50.971Z,17.49
2018-04-27T12:17:57.701Z,17.71
2018-04-27T12:19:03.277Z,17.54
2018-04-27T12:20:09.558Z,17.62
2018-04-27T12:21:16.009Z,17.56
2018-04-27T12:22:22.244Z,17.72
2018-04-27T12:23:28.530Z,17.81
2018-04-27T12:24:34.741Z,17.63
2018-04-27T12:25:40.656Z,17.81
2018-04-27T12:26:47.051Z,17.77
2018-04-27T12:27:52.957Z,17.63
2018-04-27T12:28:58.837Z,17.84
2018-04-27T12:30:04.713Z,17.72
2018-04-27T12:31:10.958Z,17.89
2018-04-27T12:32:17.378Z,18.13
2018-04-27T12:33:23.616Z,18.17
2018-04-27T12:34:29.858Z,18.25
2018-04-27T12:35:35.783Z,18.26
2018-04-27T12:36:42.348Z,18.02
2018-04-27T12:37:47.956Z,18.17
2018-04-27T12:38:53.616Z,18.14
2018-04-27T12:40:00.419Z,18.10
2018-04-27T12:41:08.041Z,18.23
2018-04-27T12:42:14.412Z,18.16
2018-04-27T12:43:20.502Z,18.28
2018-04-27T12:44:25.814Z,18.11
2018-04-27T12:45:31.072Z,18.15
2018-04-27T12:46:36.594Z,18.07
2018-04-27T12:47:42.548Z,18.24
2018-04-27T12:48:50.458Z,18.43
2018-04-27T12:51:07.639Z,18.24
2018-04-27T12:52:13.279Z,18.00
2018-04-27T12:53:20.440Z,17.79
2018-04-27T12:54:26.136Z,17.74
2018-04-27T12:55:31.412Z,18.15
2018-04-27T12:56:36.994Z,18.50
2018-04-27T12:57:42.782Z,18.42
2018-04-27T12:58:49.024Z,18.50
2018-04-27T12:59:55.284Z,18.40
2018-04-27T13:01:01.498Z,18.53
2018-04-27T13:02:07.354Z,18.20
2018-04-27T13:03:13.245Z,18.18
2018-04-27T13:04:19.572Z,18.24
2018-04-27T13:05:25.138Z,18.44
2018-04-27T13:06:30.686Z,18.53
2018-04-27T13:07:35.950Z,18.71
2018-04-27T13:08:41.544Z,18.51
2018-04-27T13:09:47.086Z,18.61
2018-04-27T13:10:52.679Z,18.30
2018-04-27T13:11:58.255Z,18.09
2018-04-27T13:13:03.789Z,18.37
2018-04-27T13:14:09.366Z,17.78
2018-04-27T13:15:15.294Z,17.47
2018-04-27T13:16:20.818Z,17.72
2018-04-27T13:17:26.491Z,17.67
2018-04-27T13:18:32.089Z,17.84
2018-04-27T13:19:37.731Z,17.88
2018-04-27T13:20:43.950Z,18.21
2018-04-27T13:21:50.173Z,17.83
2018-04-27T13:22:56.411Z,17.96
2018-04-27T13:24:02.672Z,18.15
2018-04-27T13:25:08.940Z,18.09
2018-04-27T13:26:14.860Z,18.12
2018-04-27T13:27:21.154Z,18.24
2018-04-27T13:28:27.467Z,18.07
2018-04-27T13:29:33.685Z,18.46
2018-04-27T13:30:39.235Z,18.33
2018-04-27T13:31:45.679Z,18.20
2018-04-27T13:32:51.905Z,18.52
2018-04-27T13:33:58.175Z,18.50
2018-04-27T13:35:04.197Z,18.30
2018-04-27T13:36:10.418Z,18.43
2018-04-27T13:37:16.574Z,18.83
2018-04-27T13:38:22.758Z,18.50
2018-04-27T13:39:28.391Z,18.48
2018-04-27T13:40:34.583Z,18.06
2018-04-27T13:41:40.828Z,17.94
2018-04-27T13:42:46.986Z,17.80
2018-04-27T13:43:53.213Z,17.93
2018-04-27T13:44:59.421Z,17.99
2018-04-27T13:46:05.708Z,18.28
2018-04-27T13:47:11.616Z,18.33
2018-04-27T13:48:17.823Z,18.44
2018-04-27T13:49:23.345Z,18.39
2018-04-27T13:50:28.851Z,18.03
2018-04-27T13:51:34.821Z,17.79
2018-04-27T13:52:40.491Z,17.79
2018-04-27T13:53:45.787Z,17.56
2018-04-27T13:54:51.302Z,17.41
2018-04-27T13:55:58.557Z,17.35
2018-04-27T13:57:04.077Z,17.30
2018-04-27T13:58:09.591Z,17.36
2018-04-27T13:59:16.099Z,17.61
2018-04-27T14:00:21.701Z,18.03
2018-04-27T14:01:27.725Z,18.51
2018-04-27T14:02:33.255Z,18.81
2018-04-27T14:03:38.744Z,18.93
2018-04-27T14:04:43.985Z,18.95
2018-04-27T14:05:49.509Z,18.81
2018-04-27T14:06:55.376Z,18.59
2018-04-27T14:08:00.902Z,18.27
2018-04-27T14:09:06.185Z,18.41
2018-04-27T14:10:11.705Z,18.74
2018-04-27T14:11:17.228Z,18.69
2018-04-27T14:12:22.942Z,18.87
2018-04-27T14:13:28.241Z,18.54
2018-04-27T14:14:33.793Z,18.60
2018-04-27T14:15:39.095Z,18.56
2018-04-27T14:16:48.280Z,18.37
2018-04-27T14:17:58.344Z,18.31
2018-04-27T14:19:03.627Z,18.03
2018-04-27T14:20:09.166Z,18.15
2018-04-27T14:21:14.726Z,18.31
2018-04-27T14:22:20.982Z,18.06
2018-04-27T14:23:26.956Z,17.96
2018-04-27T14:24:32.622Z,18.28
2018-04-27T14:25:38.969Z,18.23
2018-04-27T14:26:45.049Z,18.25
2018-04-27T14:27:51.419Z,18.19